Strona główna
METAR-TAF:

METAR-TAF

Lotnisko :

Cranwell, Anglia

Szerokość geograficzna: 53-02N, Długość geograficzna: 000-30W, wysokość: 67 m

Aktualna obserwacja pogody

Raport powstał 1 godzina i 0 minut temu, godzina 05:50 UTC
Wiatr 8 kt od północno-północny wschód
Temperatura 12°C
Wilgotność 88%
Ciśnienie 1025 hPa
Widzialność 10 km lub więcej
Brak chmur poniżej 1500 m i brak chmur cumulonimbus

METAR: EGYD 010550Z 02008KT CAVOK 12/10 Q1025 NOSIG RMK BLU BLU

czas: 07:50 (06:50 UTC)

Prognoza

Raport powstał 1 godzina i 25 minut temu, godzina 05:25 UTC
Prognoza ważna od 01 godzina 06 UTC do 01 godzina 15 UTC
Wiatr 8 kt od północny wschód
Widzialność 10 km lub więcej
Mało chmury na wysokości 3500 ft

TAF: EGYD 010525Z 0106/0115 04008KT 9999 FEW035

Obserwacja i prognoza pogody dla ponad 4000 lotnisk (raport METAR i TAF).

Dostępne stacje oznaczono żółtymi i czerwonymi punktami na mapie.

Najedź kursorem aby zobaczyć nazwę stacji.

Kliknij aby zobaczyć obserwacje i prognozy pogody.

Aby zmienić mapę: kliknij na zielony przycisk z czarnym krzyżykiem, aby powiększyć; na zielony przycisk z myślnikiem, aby pomniejszyć; na zielone strzałki, aby przejść do map sąsiednich.


METAR-TAF: